Time;durP1;ratioP1;P1;durP2;ratioP2;P2;SDS_P1;SDS_P2;PMS_P1;PMS_P2;Temp;Humidity;BMP_temperature;BMP_pressure;BME280_temperature;BME280_humidity;BME280_pressure;Samples;Min_cycle;Max_cycle;Signal;HPM_P1;HPM_P2
2023/03/05 00:01:26;;;;;;;23.33;16.08;;;3.00;61.80;;;;;;4983810;28;114707;-78
2023/03/05 00:03:54;;;;;;;24.33;14.43;;;3.00;61.80;;;;;;4966785;28;114523;-78
2023/03/05 00:06:23;;;;;;;24.88;15.70;;;2.90;61.90;;;;;;4966439;28;114605;-78
2023/03/05 00:08:52;;;;;;;22.98;14.95;;;2.90;62.00;;;;;;4983494;28;115162;-78
2023/03/05 00:11:19;;;;;;;27.83;15.82;;;2.90;61.90;;;;;;4983692;28;115189;-78
2023/03/05 00:13:46;;;;;;;25.48;15.20;;;2.90;61.90;;;;;;4984250;28;114305;-78
2023/03/05 00:16:14;;;;;;;23.60;15.43;;;3.00;61.90;;;;;;4950746;28;114311;-78
2023/03/05 00:18:42;;;;;;;28.33;15.27;;;3.00;61.80;;;;;;4965428;28;115090;-78
2023/03/05 00:21:27;;;;;;;34.38;16.38;;;3.00;61.80;;;;;;4948785;28;114819;-78
2023/03/05 00:23:55;;;;;;;25.38;14.27;;;3.10;62.00;;;;;;4951274;28;114623;-78
2023/03/05 00:26:24;;;;;;;25.98;15.02;;;3.00;61.70;;;;;;4959140;28;114846;-78
2023/03/05 00:28:51;;;;;;;26.40;15.48;;;3.00;61.70;;;;;;4985045;28;115090;-78
2023/03/05 00:31:20;;;;;;;27.92;14.93;;;2.90;61.70;;;;;;4968728;28;114740;-78
2023/03/05 00:33:52;;;;;;;24.50;14.63;;;2.90;61.70;;;;;;4953860;28;114428;-79
2023/03/05 00:36:19;;;;;;;24.02;13.75;;;2.90;61.80;;;;;;5003345;28;114457;-78
2023/03/05 00:38:47;;;;;;;27.42;14.35;;;2.90;61.80;;;;;;5002423;28;115598;-78
2023/03/05 00:41:14;;;;;;;24.52;12.90;;;2.90;61.90;;;;;;4969957;28;114683;-78
2023/03/05 00:43:41;;;;;;;23.42;12.68;;;2.90;62.10;;;;;;4982981;28;114395;-78
2023/03/05 00:46:08;;;;;;;21.27;11.85;;;2.90;62.00;;;;;;4965895;28;114426;-78
2023/03/05 00:48:35;;;;;;;24.35;12.95;;;2.90;62.00;;;;;;4963993;28;116504;-79
2023/03/05 00:51:03;;;;;;;22.23;12.05;;;2.90;61.90;;;;;;4965223;28;114925;-78
2023/03/05 00:53:30;;;;;;;22.67;10.85;;;2.90;61.90;;;;;;4965984;28;114641;-79
2023/03/05 00:55:57;;;;;;;24.17;10.57;;;2.80;61.80;;;;;;4983378;28;114604;-78
2023/03/05 00:58:25;;;;;;;23.55;12.40;;;2.80;61.80;;;;;;4973620;28;115438;-79
2023/03/05 01:00:52;;;;;;;16.17;9.60;;;2.80;61.70;;;;;;4965693;28;118517;-78
2023/03/05 01:03:19;;;;;;;25.73;9.85;;;2.80;61.70;;;;;;4985453;28;114730;-78
2023/03/05 01:05:47;;;;;;;16.42;9.07;;;2.80;61.70;;;;;;5003704;28;114812;-78
2023/03/05 01:08:15;;;;;;;24.88;9.88;;;2.80;61.80;;;;;;4967563;28;115147;-78
2023/03/05 01:10:42;;;;;;;22.15;9.63;;;2.70;61.70;;;;;;5002112;28;114639;-79
2023/03/05 01:13:10;;;;;;;20.65;9.73;;;2.70;61.70;;;;;;4968387;28;114454;-78
2023/03/05 01:15:37;;;;;;;21.45;9.32;;;2.70;62.00;;;;;;4958368;28;115288;-78
2023/03/05 01:18:04;;;;;;;18.88;9.93;;;2.70;61.90;;;;;;4981675;28;115367;-78
2023/03/05 01:20:31;;;;;;;16.75;9.52;;;2.70;61.70;;;;;;4964964;28;114702;-78
2023/03/05 01:23:00;;;;;;;18.33;9.77;;;2.70;61.80;;;;;;4965773;28;114519;-78
2023/03/05 01:25:27;;;;;;;18.13;10.30;;;2.70;61.80;;;;;;4965193;28;114569;-78
2023/03/05 01:27:55;;;;;;;15.63;8.20;;;2.60;62.10;;;;;;4964426;28;115541;-78
2023/03/05 01:30:22;;;;;;;15.88;8.70;;;2.60;62.20;;;;;;4952119;28;116293;-78
2023/03/05 01:32:49;;;;;;;19.35;9.10;;;2.60;62.10;;;;;;4968174;28;114719;-78
2023/03/05 01:35:19;;;;;;;18.65;8.55;;;2.60;62.20;;;;;;4973210;28;114860;-78
2023/03/05 01:37:47;;;;;;;21.55;9.02;;;2.60;62.20;;;;;;4962198;28;115653;-78
2023/03/05 01:40:17;;;;;;;16.25;8.52;;;2.50;62.20;;;;;;4931489;28;115807;-78
2023/03/05 01:42:46;;;;;;;20.30;8.18;;;2.50;62.30;;;;;;4965833;28;114421;-78
2023/03/05 01:45:17;;;;;;;23.23;9.75;;;2.40;62.30;;;;;;4965449;28;114319;-78
2023/03/05 01:47:44;;;;;;;20.25;9.40;;;2.50;62.40;;;;;;4948386;28;115151;-78
2023/03/05 01:50:17;;;;;;;19.83;8.75;;;2.50;62.60;;;;;;4982100;28;114686;-78
2023/03/05 01:53:06;;;;;;;17.58;8.93;;;2.50;62.60;;;;;;4919440;28;114404;-78
2023/03/05 01:55:33;;;;;;;19.60;8.40;;;2.60;62.80;;;;;;4931821;28;114487;-79
2023/03/05 01:58:04;;;;;;;17.27;8.27;;;2.50;62.70;;;;;;4948043;28;115393;-78
2023/03/05 02:00:36;;;;;;;16.98;10.25;;;2.50;62.70;;;;;;4934865;28;119255;-78
2023/03/05 02:03:06;;;;;;;20.25;8.65;;;2.50;62.90;;;;;;4968781;28;114627;-78
2023/03/05 02:05:35;;;;;;;19.48;8.70;;;2.50;62.90;;;;;;4983754;28;114539;-78
2023/03/05 02:08:11;;;;;;;18.60;8.18;;;2.50;62.90;;;;;;4983645;28;118805;-79
2023/03/05 02:10:42;;;;;;;15.38;8.52;;;2.50;63.20;;;;;;4984446;28;114972;-78
2023/03/05 02:13:16;;;;;;;19.55;9.40;;;2.50;63.10;;;;;;4966164;28;114441;-79
2023/03/05 02:15:43;;;;;;;18.77;8.95;;;2.50;63.20;;;;;;5001512;28;114698;-79
2023/03/05 02:18:10;;;;;;;20.02;9.32;;;2.50;63.20;;;;;;5000547;28;115126;-79
2023/03/05 02:20:56;;;;;;;16.98;9.45;;;2.50;63.20;;;;;;4984298;28;114764;-79
2023/03/05 02:23:29;;;;;;;19.65;8.57;;;2.60;63.30;;;;;;5000884;28;114826;-78
2023/03/05 02:25:56;;;;;;;19.00;9.27;;;2.50;63.00;;;;;;4984742;28;114847;-79
2023/03/05 02:28:36;;;;;;;15.95;8.80;;;2.50;63.00;;;;;;5000849;28;115193;-78
2023/03/05 02:31:14;;;;;;;18.10;9.25;;;2.60;63.00;;;;;;4985055;28;114862;-79
2023/03/05 02:33:42;;;;;;;15.07;7.70;;;2.60;63.00;;;;;;4984681;28;114497;-78
2023/03/05 02:36:10;;;;;;;20.17;9.38;;;2.50;63.00;;;;;;4968178;28;114478;-79
2023/03/05 02:38:41;;;;;;;18.38;8.43;;;2.50;63.00;;;;;;4967033;28;118643;-79
2023/03/05 02:41:09;;;;;;;19.58;8.55;;;2.50;63.30;;;;;;5000933;28;114644;-79
2023/03/05 02:43:36;;;;;;;17.48;8.48;;;2.40;63.20;;;;;;4952083;28;114446;-80
2023/03/05 02:46:04;;;;;;;15.57;7.88;;;2.50;63.20;;;;;;4984378;28;114604;-80
2023/03/05 02:48:31;;;;;;;16.42;8.13;;;2.50;63.20;;;;;;5000033;28;115086;-78
2023/03/05 02:51:00;;;;;;;15.25;7.55;;;2.50;63.20;;;;;;4983545;28;114707;-79
2023/03/05 02:53:27;;;;;;;14.70;7.53;;;2.50;63.30;;;;;;4999962;28;114479;-79
2023/03/05 02:55:54;;;;;;;14.10;7.35;;;2.50;63.20;;;;;;4984238;28;114480;-79
2023/03/05 02:58:21;;;;;;;14.48;6.68;;;2.50;63.10;;;;;;4983502;28;115332;-79
2023/03/05 03:00:48;;;;;;;15.07;6.25;;;2.50;63.10;;;;;;5019077;28;115599;-79
2023/03/05 03:03:16;;;;;;;16.17;6.85;;;2.50;63.10;;;;;;5021544;28;114669;-79
2023/03/05 03:05:43;;;;;;;11.82;6.45;;;2.50;62.90;;;;;;5003860;28;114462;-79
2023/03/05 03:08:10;;;;;;;13.90;6.70;;;2.50;62.90;;;;;;5021303;28;115249;-79
2023/03/05 03:10:37;;;;;;;14.93;6.63;;;2.50;62.90;;;;;;5003241;28;115769;-78
2023/03/05 03:13:04;;;;;;;18.77;7.20;;;2.40;62.90;;;;;;5021469;28;114508;-79
2023/03/05 03:15:31;;;;;;;16.38;7.85;;;2.40;62.90;;;;;;5003911;28;114895;-79
2023/03/05 03:17:59;;;;;;;14.98;7.75;;;2.40;62.90;;;;;;4986008;28;116421;-79
2023/03/05 03:20:26;;;;;;;15.00;7.13;;;2.30;62.90;;;;;;4986502;28;114616;-79
2023/03/05 03:22:53;;;;;;;17.27;7.53;;;2.30;62.90;;;;;;4985798;28;114661;-78
2023/03/05 03:25:21;;;;;;;15.90;7.60;;;2.30;63.00;;;;;;5002908;28;114602;-79
2023/03/05 03:27:51;;;;;;;12.43;7.05;;;2.30;63.20;;;;;;5003156;28;115106;-78
2023/03/05 03:30:18;;;;;;;17.23;7.72;;;2.30;63.20;;;;;;5020515;28;115294;-79
2023/03/05 03:32:45;;;;;;;13.88;7.00;;;2.20;63.10;;;;;;5004831;28;114418;-78
2023/03/05 03:35:12;;;;;;;15.07;7.03;;;2.20;63.20;;;;;;4987437;28;114626;-79
2023/03/05 03:37:40;;;;;;;14.38;7.60;;;2.20;63.30;;;;;;5021130;28;115089;-79
2023/03/05 03:40:08;;;;;;;15.98;7.90;;;2.10;63.40;;;;;;5003094;28;114834;-79
2023/03/05 03:42:35;;;;;;;13.98;7.22;;;2.10;63.70;;;;;;5021354;28;114514;-79
2023/03/05 03:45:03;;;;;;;14.10;6.50;;;2.10;63.80;;;;;;5021386;28;114402;-79
2023/03/05 03:47:30;;;;;;;16.85;6.80;;;2.10;64.10;;;;;;5003194;28;118080;-79
2023/03/05 03:50:00;;;;;;;12.10;7.10;;;2.10;64.20;;;;;;4970362;28;117668;-78
2023/03/05 03:52:28;;;;;;;15.27;6.95;;;2.10;64.30;;;;;;5020959;28;114415;-78
2023/03/05 03:55:00;;;;;;;15.60;7.45;;;2.00;64.40;;;;;;5003886;28;114378;-78
2023/03/05 03:57:29;;;;;;;13.87;6.50;;;1.90;64.60;;;;;;5006298;28;116473;-79
2023/03/05 03:59:58;;;;;;;16.08;6.68;;;2.00;64.70;;;;;;4989686;28;114708;-79
2023/03/05 04:02:26;;;;;;;13.93;7.13;;;2.00;65.00;;;;;;5025165;28;114521;-79
2023/03/05 04:04:53;;;;;;;17.10;6.65;;;2.00;65.00;;;;;;5007307;28;117375;-79
2023/03/05 04:07:20;;;;;;;10.75;5.82;;;1.90;65.00;;;;;;5023826;28;115126;-79
2023/03/05 04:09:47;;;;;;;15.02;6.97;;;1.90;65.10;;;;;;5024409;28;116059;-79
2023/03/05 04:12:17;;;;;;;14.75;6.65;;;1.90;65.20;;;;;;5025005;28;114496;-78
2023/03/05 04:14:47;;;;;;;13.00;6.28;;;1.90;65.10;;;;;;5001829;28;117948;-78
2023/03/05 04:17:23;;;;;;;13.50;6.70;;;1.90;65.30;;;;;;4991935;28;115177;-78
2023/03/05 04:19:50;;;;;;;12.75;6.68;;;1.90;65.30;;;;;;5023842;28;115053;-79
2023/03/05 04:22:17;;;;;;;14.98;7.10;;;1.90;65.50;;;;;;4956502;28;116254;-79
2023/03/05 04:24:46;;;;;;;14.68;6.82;;;1.80;65.70;;;;;;5004503;28;114549;-79
2023/03/05 04:27:13;;;;;;;13.45;6.28;;;1.80;65.60;;;;;;5023300;28;115666;-79
2023/03/05 04:29:40;;;;;;;15.73;7.55;;;1.80;65.70;;;;;;5023794;28;114653;-79
2023/03/05 04:32:07;;;;;;;15.15;6.47;;;1.80;65.80;;;;;;5023371;28;117916;-78
2023/03/05 04:34:36;;;;;;;14.50;7.07;;;1.80;65.90;;;;;;4989980;28;114345;-79
2023/03/05 04:37:09;;;;;;;14.85;6.55;;;1.80;66.00;;;;;;5005376;28;119434;-79
2023/03/05 04:39:37;;;;;;;17.48;6.82;;;1.80;66.00;;;;;;4989707;28;114633;-78
2023/03/05 04:42:09;;;;;;;14.30;6.53;;;1.70;66.20;;;;;;5006346;28;114755;-78
2023/03/05 04:44:36;;;;;;;11.48;5.88;;;1.70;66.50;;;;;;5024006;28;114545;-78
2023/03/05 04:47:03;;;;;;;14.88;7.03;;;1.70;66.50;;;;;;4956254;28;115199;-78
2023/03/05 04:49:30;;;;;;;15.38;6.65;;;1.70;66.50;;;;;;5018882;28;115553;-79
2023/03/05 04:51:58;;;;;;;13.10;6.53;;;1.70;66.60;;;;;;5023903;28;114466;-78
2023/03/05 04:54:25;;;;;;;15.55;5.97;;;1.70;66.70;;;;;;5023767;28;114543;-79
2023/03/05 04:56:52;;;;;;;14.32;7.47;;;1.70;66.90;;;;;;5020453;28;116194;-79
2023/03/05 04:59:19;;;;;;;12.57;6.45;;;1.70;66.70;;;;;;5022566;28;114678;-78
2023/03/05 05:01:46;;;;;;;12.18;6.38;;;1.70;66.70;;;;;;5005898;28;114477;-78
2023/03/05 05:04:14;;;;;;;14.52;6.80;;;1.70;66.80;;;;;;5023460;28;114345;-78
2023/03/05 05:06:41;;;;;;;15.45;6.63;;;1.70;66.90;;;;;;5022297;28;115726;-79
2023/03/05 05:09:08;;;;;;;14.90;7.07;;;1.70;66.90;;;;;;5001460;28;115979;-78
2023/03/05 05:11:35;;;;;;;16.88;7.35;;;1.70;67.00;;;;;;5023664;28;114413;-78
2023/03/05 05:14:03;;;;;;;13.82;7.47;;;1.70;66.90;;;;;;5023621;28;114405;-78
2023/03/05 05:16:30;;;;;;;16.70;7.75;;;1.70;67.10;;;;;;4988187;28;116251;-79
2023/03/05 05:18:57;;;;;;;14.07;9.30;;;1.70;67.10;;;;;;5003475;28;115073;-78
2023/03/05 05:21:24;;;;;;;16.20;7.95;;;1.60;67.10;;;;;;5004690;28;114504;-78
2023/03/05 05:23:52;;;;;;;15.35;8.25;;;1.70;67.30;;;;;;5022996;28;114418;-78
2023/03/05 05:26:19;;;;;;;16.98;8.13;;;1.70;67.30;;;;;;5004157;28;115493;-78
2023/03/05 05:28:46;;;;;;;17.90;6.95;;;1.70;67.20;;;;;;5021940;28;114697;-78
2023/03/05 05:31:14;;;;;;;15.85;7.40;;;1.70;67.30;;;;;;4988537;28;114489;-79
2023/03/05 05:33:42;;;;;;;17.80;7.30;;;1.60;67.30;;;;;;4972396;28;114512;-79
2023/03/05 05:36:12;;;;;;;12.45;6.90;;;1.70;67.30;;;;;;4971535;28;116050;-78
2023/03/05 05:38:39;;;;;;;16.92;7.50;;;1.70;67.30;;;;;;5005194;28;114754;-78
2023/03/05 05:41:09;;;;;;;13.52;6.63;;;1.60;67.30;;;;;;5022811;28;118327;-78
2023/03/05 05:43:37;;;;;;;11.23;6.57;;;1.70;67.60;;;;;;5005545;28;114858;-78
2023/03/05 05:46:10;;;;;;;15.60;6.85;;;1.60;67.70;;;;;;5021358;28;116501;-78
2023/03/05 05:48:38;;;;;;;15.57;6.95;;;1.70;67.90;;;;;;4987654;28;117341;-79
2023/03/05 05:51:07;;;;;;;14.43;6.68;;;1.60;67.70;;;;;;4988708;28;115036;-78
2023/03/05 05:53:37;;;;;;;14.07;6.22;;;1.60;67.70;;;;;;5005189;28;119098;-78
2023/03/05 05:56:08;;;;;;;11.15;5.85;;;1.70;67.70;;;;;;4989215;28;115111;-78
2023/03/05 05:58:36;;;;;;;14.27;6.72;;;1.70;67.70;;;;;;4971434;28;115197;-78
2023/03/05 06:01:12;;;;;;;12.75;6.53;;;1.70;67.70;;;;;;4988832;28;114618;-78
2023/03/05 06:03:40;;;;;;;13.82;6.68;;;1.70;67.90;;;;;;5005981;28;114428;-78
2023/03/05 06:06:10;;;;;;;14.10;6.70;;;1.70;67.60;;;;;;5004277;28;116713;-78
2023/03/05 06:08:37;;;;;;;12.95;6.72;;;1.70;67.70;;;;;;5021984;28;114618;-79
2023/03/05 06:11:05;;;;;;;12.90;6.28;;;1.70;67.80;;;;;;4971702;28;114460;-79
2023/03/05 06:13:33;;;;;;;13.73;6.70;;;1.70;67.70;;;;;;5005267;28;114464;-78
2023/03/05 06:16:03;;;;;;;15.27;7.47;;;1.70;67.70;;;;;;5021387;28;115296;-79
2023/03/05 06:18:30;;;;;;;15.23;7.47;;;1.70;67.80;;;;;;4971979;27;114652;-78
2023/03/05 06:21:00;;;;;;;19.02;8.52;;;1.70;67.70;;;;;;5021877;28;114539;-78
2023/03/05 06:23:27;;;;;;;17.70;9.63;;;1.70;67.70;;;;;;5004049;28;114369;-78
2023/03/05 06:25:58;;;;;;;16.13;9.40;;;1.70;67.80;;;;;;4981813;28;117737;-78
2023/03/05 06:28:25;;;;;;;17.45;9.27;;;1.80;67.90;;;;;;4987861;28;114463;-78
2023/03/05 06:31:09;;;;;;;14.95;8.88;;;1.80;67.90;;;;;;5022925;28;114344;-78
2023/03/05 06:33:37;;;;;;;17.50;9.18;;;1.80;68.20;;;;;;4989223;28;114426;-78
2023/03/05 06:36:06;;;;;;;14.80;8.57;;;1.80;68.00;;;;;;5002756;28;119738;-78
2023/03/05 06:38:33;;;;;;;20.95;9.68;;;1.80;67.90;;;;;;5004313;28;118216;-78
2023/03/05 06:41:05;;;;;;;18.00;9.00;;;1.90;67.80;;;;;;5022801;28;114790;-78
2023/03/05 06:43:32;;;;;;;17.95;8.93;;;1.80;67.60;;;;;;4988615;28;114367;-79
2023/03/05 06:46:13;;;;;;;14.18;9.10;;;1.80;67.70;;;;;;5021614;28;115091;-78
2023/03/05 06:48:42;;;;;;;15.90;8.15;;;1.90;67.90;;;;;;4972379;28;117621;-78
2023/03/05 06:51:38;;;;;;;16.35;8.60;;;1.90;67.80;;;;;;4988133;28;114452;-78
2023/03/05 06:54:11;;;;;;;16.88;9.95;;;1.90;67.90;;;;;;4973195;28;115843;-78
2023/03/05 06:56:40;;;;;;;18.53;9.20;;;2.00;67.90;;;;;;4971404;28;115204;-79
2023/03/05 06:59:08;;;;;;;14.75;9.10;;;1.90;67.70;;;;;;4970396;28;118217;-78
2023/03/05 07:01:36;;;;;;;16.20;9.50;;;2.00;67.70;;;;;;5003751;28;114638;-78
2023/03/05 07:04:04;;;;;;;17.48;10.68;;;2.00;67.70;;;;;;5005042;28;114639;-79
2023/03/05 07:06:33;;;;;;;18.08;10.52;;;2.00;67.70;;;;;;5021679;28;115502;-78
2023/03/05 07:09:01;;;;;;;20.63;10.95;;;2.10;67.60;;;;;;5021744;28;115616;-78
2023/03/05 07:11:28;;;;;;;17.77;11.15;;;2.10;67.70;;;;;;5003637;28;114434;-79
2023/03/05 07:13:55;;;;;;;26.30;12.65;;;2.10;67.70;;;;;;5004189;28;114513;-79
2023/03/05 07:16:25;;;;;;;22.10;12.38;;;2.10;67.60;;;;;;4986986;28;115818;-78
2023/03/05 07:18:53;;;;;;;21.65;12.55;;;2.10;67.60;;;;;;4987740;28;115222;-79
2023/03/05 07:21:23;;;;;;;23.17;13.30;;;2.10;67.70;;;;;;5002882;28;115612;-79
2023/03/05 07:23:52;;;;;;;24.30;12.48;;;2.10;67.80;;;;;;4987548;28;114419;-78
2023/03/05 07:26:19;;;;;;;22.73;13.10;;;2.10;67.90;;;;;;5020405;28;115003;-79
2023/03/05 07:28:46;;;;;;;22.10;13.18;;;2.10;67.90;;;;;;5001145;28;114671;-78
2023/03/05 07:31:17;;;;;;;22.50;13.23;;;2.20;67.90;;;;;;5023259;27;114308;-78
2023/03/05 07:33:49;;;;;;;26.67;13.38;;;2.10;68.00;;;;;;4990915;28;114362;-79
2023/03/05 07:36:16;;;;;;;23.73;13.52;;;2.20;68.20;;;;;;4973267;28;115544;-78
2023/03/05 07:38:43;;;;;;;21.70;13.23;;;2.10;68.20;;;;;;5024234;28;114941;-78
2023/03/05 07:41:12;;;;;;;25.98;14.38;;;2.10;68.20;;;;;;5007151;28;114937;-78
2023/03/05 07:43:40;;;;;;;24.90;13.50;;;2.20;68.20;;;;;;5007236;28;114522;-78
2023/03/05 07:46:08;;;;;;;19.38;11.88;;;2.10;68.30;;;;;;5004790;28;119495;-78
2023/03/05 07:48:35;;;;;;;26.92;13.90;;;2.20;68.30;;;;;;5024330;28;116072;-78
2023/03/05 07:51:08;;;;;;;27.95;14.77;;;2.20;68.40;;;;;;4957352;28;114582;-78
2023/03/05 07:53:36;;;;;;;22.73;13.07;;;2.20;68.60;;;;;;4989172;28;114540;-78
2023/03/05 07:56:04;;;;;;;21.33;12.93;;;2.10;68.40;;;;;;5006455;28;118886;-78
2023/03/05 07:58:31;;;;;;;21.30;12.45;;;2.20;68.50;;;;;;5006052;28;114733;-79
2023/03/05 08:00:58;;;;;;;24.30;13.13;;;2.20;68.60;;;;;;5024282;28;114223;-78
2023/03/05 08:03:25;;;;;;;24.55;12.63;;;2.20;68.50;;;;;;4973180;28;114674;-78
2023/03/05 08:05:52;;;;;;;26.23;12.50;;;2.30;68.40;;;;;;5006152;28;115134;-78
2023/03/05 08:08:20;;;;;;;28.08;13.88;;;2.30;68.40;;;;;;5024231;28;114656;-79
2023/03/05 08:10:47;;;;;;;24.33;12.35;;;2.40;68.40;;;;;;5006908;28;114580;-79
2023/03/05 08:13:17;;;;;;;27.13;13.60;;;2.40;68.40;;;;;;5006091;28;114803;-78
2023/03/05 08:15:44;;;;;;;20.25;12.00;;;2.30;68.30;;;;;;5023204;28;115999;-78
2023/03/05 08:18:12;;;;;;;25.20;14.93;;;2.40;68.40;;;;;;5023380;28;116264;-78
2023/03/05 08:20:39;;;;;;;22.27;14.13;;;2.40;68.40;;;;;;5006286;28;114529;-78
2023/03/05 08:23:08;;;;;;;23.25;13.40;;;2.40;68.40;;;;;;4990258;28;114385;-78
2023/03/05 08:25:36;;;;;;;27.38;13.65;;;2.40;68.50;;;;;;5023472;28;116696;-78
2023/03/05 08:28:04;;;;;;;27.27;15.27;;;2.40;68.50;;;;;;5022041;28;116694;-79
2023/03/05 08:30:31;;;;;;;24.10;14.10;;;2.50;68.60;;;;;;5024547;28;114711;-78
2023/03/05 08:32:58;;;;;;;23.67;13.60;;;2.60;68.50;;;;;;5006610;28;114522;-78
2023/03/05 08:35:25;;;;;;;28.20;16.17;;;2.50;68.50;;;;;;5005869;28;115110;-79
2023/03/05 08:37:52;;;;;;;28.20;16.50;;;2.60;68.50;;;;;;5005057;28;114731;-78
2023/03/05 08:40:19;;;;;;;30.38;17.50;;;2.60;68.50;;;;;;4989227;28;114525;-79
2023/03/05 08:42:47;;;;;;;31.92;16.85;;;2.60;68.60;;;;;;5023457;27;117434;-78
2023/03/05 08:45:14;;;;;;;33.78;18.08;;;2.70;68.80;;;;;;5023652;28;115085;-78
2023/03/05 08:47:41;;;;;;;33.78;18.05;;;2.70;68.60;;;;;;5023091;28;116263;-78
2023/03/05 08:50:10;;;;;;;35.03;19.58;;;2.70;68.50;;;;;;5024082;28;114385;-79
2023/03/05 08:52:38;;;;;;;34.92;18.80;;;2.80;68.50;;;;;;5024769;28;114537;-78
2023/03/05 08:55:05;;;;;;;33.65;20.92;;;2.80;68.50;;;;;;5023806;28;115136;-78
2023/03/05 08:57:32;;;;;;;31.75;18.23;;;2.80;68.60;;;;;;5024297;28;114710;-79
2023/03/05 08:59:59;;;;;;;29.33;15.18;;;2.80;68.50;;;;;;5005790;28;114473;-79
2023/03/05 09:02:27;;;;;;;28.25;13.85;;;2.90;68.30;;;;;;4987286;28;114603;-79
2023/03/05 09:04:54;;;;;;;21.95;11.70;;;2.90;68.20;;;;;;5023196;28;116027;-78
2023/03/05 09:07:21;;;;;;;18.45;10.05;;;3.00;68.10;;;;;;5023604;28;114632;-78
2023/03/05 09:09:49;;;;;;;16.27;9.07;;;3.10;67.50;;;;;;4990339;28;114402;-79
2023/03/05 09:12:16;;;;;;;18.13;8.50;;;3.10;67.20;;;;;;5024484;28;114396;-78
2023/03/05 09:14:44;;;;;;;19.73;8.55;;;3.20;67.00;;;;;;5023490;28;115641;-80
2023/03/05 09:17:11;;;;;;;15.52;7.03;;;3.20;66.50;;;;;;5005651;28;114826;-80
2023/03/05 09:19:38;;;;;;;15.60;7.00;;;3.30;66.00;;;;;;4989648;28;114431;-80
2023/03/05 09:22:05;;;;;;;12.82;6.63;;;3.40;65.70;;;;;;4990374;28;117836;-81
2023/03/05 09:24:33;;;;;;;15.40;5.68;;;3.50;65.40;;;;;;4989084;28;115388;-80
2023/03/05 09:27:00;;;;;;;14.00;6.80;;;3.50;65.10;;;;;;5004299;28;117459;-79
2023/03/05 09:29:28;;;;;;;14.25;6.95;;;3.50;64.90;;;;;;4989001;28;114615;-79
2023/03/05 09:31:56;;;;;;;9.88;5.57;;;3.50;64.80;;;;;;5024019;28;114665;-79
2023/03/05 09:34:23;;;;;;;12.43;5.82;;;3.60;64.20;;;;;;5005381;28;115073;-79
2023/03/05 09:36:50;;;;;;;12.82;6.07;;;3.60;63.90;;;;;;5022972;28;114645;-78
2023/03/05 09:39:17;;;;;;;12.25;5.95;;;3.60;63.70;;;;;;5005782;28;114464;-79
2023/03/05 09:42:36;;;;;;;12.73;6.30;;;3.60;63.10;;;;;;5005461;28;114449;-79
2023/03/05 09:45:37;;;;;;;11.63;6.00;;;3.60;62.80;;;;;;5007546;28;115882;-79
2023/03/05 09:48:19;;;;;;;12.90;5.97;;;3.60;62.90;;;;;;5007984;28;114735;-79
2023/03/05 09:51:00;;;;;;;12.80;6.53;;;3.50;63.00;;;;;;5006102;28;117236;-79
2023/03/05 09:53:38;;;;;;;9.23;5.38;;;3.60;62.60;;;;;;4988748;27;114888;-79
2023/03/05 09:56:30;;;;;;;11.57;6.15;;;3.60;62.60;;;;;;5004284;28;115420;-79
2023/03/05 09:59:16;;;;;;;11.63;6.18;;;3.70;62.30;;;;;;4972874;28;114810;-79
2023/03/05 10:01:44;;;;;;;10.73;6.18;;;3.60;62.50;;;;;;4966123;28;114675;-79
2023/03/05 10:04:44;;;;;;;11.63;6.55;;;3.60;62.40;;;;;;4979158;28;114167;-79
2023/03/05 10:07:32;;;;;;;13.35;6.60;;;3.70;61.90;;;;;;4992000;28;118605;-79
2023/03/05 10:10:14;;;;;;;10.35;5.75;;;3.70;62.10;;;;;;4988408;28;114730;-79
2023/03/05 10:12:44;;;;;;;13.13;6.18;;;3.70;61.80;;;;;;4990454;28;114388;-78
2023/03/05 10:15:12;;;;;;;15.25;8.07;;;3.70;61.40;;;;;;4989296;28;114490;-79
2023/03/05 10:17:54;;;;;;;12.65;6.78;;;3.70;61.40;;;;;;5004717;28;115217;-79
2023/03/05 10:20:53;;;;;;;12.13;6.65;;;3.70;61.20;;;;;;5022342;28;114730;-79
2023/03/05 10:24:10;;;;;;;10.43;5.72;;;3.80;61.10;;;;;;4991255;28;114633;-79
2023/03/05 10:27:04;;;;;;;10.82;5.50;;;3.80;60.80;;;;;;5004319;28;114492;-79
2023/03/05 10:30:03;;;;;;;9.05;6.00;;;3.70;60.80;;;;;;4989503;28;115010;-79
2023/03/05 10:32:34;;;;;;;10.95;5.40;;;3.70;60.60;;;;;;4989127;28;115246;-79
2023/03/05 10:35:10;;;;;;;9.93;5.85;;;3.70;60.30;;;;;;5003775;28;114607;-80
2023/03/05 10:37:53;;;;;;;10.85;6.15;;;3.60;60.00;;;;;;5004856;28;114538;-80
2023/03/05 10:40:46;;;;;;;8.70;5.13;;;3.70;60.20;;;;;;4984775;28;115579;-79
2023/03/05 10:43:40;;;;;;;8.73;4.85;;;3.60;59.90;;;;;;5009614;28;114844;-79
2023/03/05 10:46:15;;;;;;;9.40;4.18;;;3.60;58.80;;;;;;5003701;28;114839;-80
2023/03/05 10:48:57;;;;;;;6.70;3.30;;;3.50;58.70;;;;;;4971636;28;114282;-79
2023/03/05 10:51:35;;;;;;;8.15;3.70;;;3.50;58.60;;;;;;4956066;28;116303;-80
2023/03/05 10:54:27;;;;;;;6.60;3.80;;;3.40;58.60;;;;;;5003819;28;119443;-79
2023/03/05 10:57:04;;;;;;;9.63;4.40;;;3.40;57.80;;;;;;5015105;28;114471;-80
2023/03/05 10:59:31;;;;;;;7.35;4.47;;;3.30;57.80;;;;;;4988916;28;114472;-80
2023/03/05 11:02:07;;;;;;;8.93;4.57;;;3.30;58.00;;;;;;5003022;28;118484;-79
2023/03/05 11:04:37;;;;;;;7.35;3.42;;;3.30;57.40;;;;;;4987948;28;116471;-78
2023/03/05 11:07:13;;;;;;;5.88;3.40;;;3.20;57.70;;;;;;4990799;28;114604;-77
2023/03/05 11:10:14;;;;;;;7.85;3.67;;;3.20;57.30;;;;;;5026582;28;115715;-80
2023/03/05 11:12:42;;;;;;;5.55;3.30;;;3.20;57.80;;;;;;4989620;28;115339;-78
2023/03/05 11:15:09;;;;;;;6.45;3.80;;;3.10;57.70;;;;;;4990813;28;114639;-78
2023/03/05 11:17:37;;;;;;;6.55;3.75;;;3.20;57.50;;;;;;5017821;28;114488;-78
2023/03/05 11:20:35;;;;;;;6.68;3.90;;;3.20;57.60;;;;;;5008103;28;114426;-78
2023/03/05 11:23:22;;;;;;;7.65;3.83;;;3.20;57.40;;;;;;4971448;28;115230;-79
2023/03/05 11:26:01;;;;;;;8.98;4.10;;;3.20;57.50;;;;;;4991161;28;115269;-80
2023/03/05 11:28:37;;;;;;;8.38;4.22;;;3.20;57.60;;;;;;4976515;28;114434;-78
2023/03/05 11:31:15;;;;;;;7.35;4.38;;;3.20;57.40;;;;;;4992577;28;114521;-78
2023/03/05 11:34:07;;;;;;;7.68;4.22;;;3.20;57.30;;;;;;5007461;28;115038;-78
2023/03/05 11:36:42;;;;;;;8.48;4.78;;;3.20;57.20;;;;;;4993436;28;114868;-80
2023/03/05 11:39:18;;;;;;;8.55;4.68;;;3.20;57.50;;;;;;4961979;28;114214;-77
2023/03/05 11:41:52;;;;;;;7.57;4.95;;;3.20;57.70;;;;;;5008692;28;114364;-78
2023/03/05 11:44:50;;;;;;;8.30;4.40;;;3.10;57.70;;;;;;4991050;28;115101;-79
2023/03/05 11:47:50;;;;;;;8.35;4.38;;;3.20;57.60;;;;;;4992544;28;114683;-79
2023/03/05 11:50:25;;;;;;;7.75;4.95;;;3.00;58.20;;;;;;5009860;28;114290;-78
2023/03/05 11:53:03;;;;;;;10.82;4.70;;;2.90;58.90;;;;;;5025937;28;114438;-78
2023/03/05 11:55:45;;;;;;;6.80;4.13;;;2.90;59.00;;;;;;4990281;28;115722;-78
2023/03/05 11:58:28;;;;;;;7.15;4.20;;;2.80;59.00;;;;;;5008690;28;114661;-79
2023/03/05 12:00:55;;;;;;;7.70;4.38;;;2.80;58.90;;;;;;5007153;28;114682;-79
2023/03/05 12:03:32;;;;;;;10.77;4.20;;;2.70;59.00;;;;;;5027570;28;114299;-79
2023/03/05 12:06:09;;;;;;;8.68;4.65;;;2.80;58.70;;;;;;5007639;28;114328;-78
2023/03/05 12:08:39;;;;;;;9.38;4.90;;;2.80;58.70;;;;;;4991529;28;114708;-78
2023/03/05 12:11:16;;;;;;;10.93;6.70;;;2.80;58.80;;;;;;4974756;28;114280;-78
2023/03/05 12:13:54;;;;;;;11.57;6.68;;;2.70;58.90;;;;;;4959545;28;114289;-78
2023/03/05 12:16:33;;;;;;;12.25;8.32;;;2.70;59.20;;;;;;4991271;28;115117;-80
2023/03/05 12:19:35;;;;;;;15.23;8.70;;;2.70;59.40;;;;;;4974819;28;117482;-78
2023/03/05 12:22:15;;;;;;;14.05;7.40;;;2.70;59.40;;;;;;5007352;28;114652;-78
2023/03/05 12:24:42;;;;;;;15.98;9.50;;;2.70;60.00;;;;;;4975508;28;114363;-79
2023/03/05 12:27:13;;;;;;;16.67;10.23;;;2.70;60.00;;;;;;4990031;28;115116;-78
2023/03/05 12:29:40;;;;;;;15.90;8.73;;;2.70;60.10;;;;;;5006972;28;114769;-79
2023/03/05 12:32:30;;;;;;;14.82;8.25;;;2.70;60.30;;;;;;5025353;28;114252;-79
2023/03/05 12:35:17;;;;;;;14.63;7.20;;;2.80;60.40;;;;;;5025019;28;114495;-80
2023/03/05 12:37:50;;;;;;;13.13;7.00;;;2.80;60.30;;;;;;5008782;28;115718;-79
2023/03/05 12:40:32;;;;;;;14.07;7.13;;;2.90;60.40;;;;;;4989841;28;114769;-78
2023/03/05 12:43:03;;;;;;;15.30;7.40;;;3.00;60.30;;;;;;4974238;28;114648;-79
2023/03/05 12:45:35;;;;;;;14.25;7.10;;;3.00;60.10;;;;;;5007139;28;114436;-78
2023/03/05 12:48:02;;;;;;;12.30;6.43;;;3.10;59.80;;;;;;5006524;28;115179;-80
2023/03/05 12:50:38;;;;;;;11.68;6.00;;;3.10;59.70;;;;;;4989597;28;114679;-79
2023/03/05 12:53:05;;;;;;;11.65;5.75;;;3.10;59.30;;;;;;5024830;28;114180;-80
2023/03/05 12:55:33;;;;;;;11.38;4.47;;;3.10;59.00;;;;;;5025268;28;114376;-80
2023/03/05 12:58:23;;;;;;;9.77;5.15;;;3.10;58.60;;;;;;5024417;28;115128;-80